Time;durP1;ratioP1;P1;durP2;ratioP2;P2;SDS_P1;SDS_P2;PMS_P1;PMS_P2;Temp;Humidity;BMP_temperature;BMP_pressure;BME280_temperature;BME280_humidity;BME280_pressure;Samples;Min_cycle;Max_cycle;Signal;HPM_P1;HPM_P2
2022/01/06 00:00:15;;;;;;;455.17;433.57;;;2.60;99.90;;;;;;4436094;32;20640;-63
2022/01/06 00:02:45;;;;;;;460.30;438.33;;;2.60;99.90;;;;;;4435954;32;20156;-63
2022/01/06 00:05:13;;;;;;;453.13;431.90;;;2.60;99.90;;;;;;4436426;32;20161;-63
2022/01/06 00:07:40;;;;;;;452.80;431.63;;;2.60;99.90;;;;;;4436165;32;20147;-67
2022/01/06 00:10:11;;;;;;;436.87;416.20;;;2.60;99.90;;;;;;4436551;32;20218;-64
2022/01/06 00:12:45;;;;;;;425.70;405.93;;;2.50;99.90;;;;;;4436057;32;20322;-65
2022/01/06 00:15:26;;;;;;;439.47;418.57;;;2.50;99.90;;;;;;4437041;32;20149;-67
2022/01/06 00:18:13;;;;;;;421.17;401.10;;;2.50;99.90;;;;;;4436878;32;20213;-67
2022/01/06 00:23:33;;;;;;;405.83;387.40;;;2.50;99.90;;;;;;4436254;32;20197;-65
2022/01/06 00:26:01;;;;;;;415.77;397.17;;;2.60;99.90;;;;;;4435747;32;20647;-67
2022/01/06 00:28:29;;;;;;;445.03;423.83;;;2.60;99.90;;;;;;4435349;32;20190;-63
2022/01/06 00:30:56;;;;;;;421.33;400.60;;;2.60;99.90;;;;;;4438625;32;20289;-67
2022/01/06 00:33:23;;;;;;;430.13;409.93;;;2.60;99.90;;;;;;4439241;32;20165;-63
2022/01/06 00:35:52;;;;;;;451.43;430.20;;;2.60;99.90;;;;;;4435739;32;20205;-64
2022/01/06 00:38:19;;;;;;;436.03;415.73;;;2.50;99.90;;;;;;4436783;32;20176;-66
2022/01/06 00:40:46;;;;;;;422.27;402.63;;;2.50;99.90;;;;;;4435610;32;20217;-67
2022/01/06 00:43:15;;;;;;;447.17;425.57;;;2.60;99.90;;;;;;4436167;32;20165;-64
2022/01/06 00:45:44;;;;;;;427.83;407.50;;;2.60;99.90;;;;;;4435080;32;20171;-67
2022/01/06 00:48:14;;;;;;;438.70;418.30;;;2.50;99.90;;;;;;4435268;32;20276;-65
2022/01/06 00:50:43;;;;;;;429.53;410.27;;;2.50;99.90;;;;;;4435416;32;20639;-65
2022/01/06 00:53:11;;;;;;;432.33;412.40;;;2.50;99.90;;;;;;4435134;32;20274;-65
2022/01/06 00:55:40;;;;;;;458.60;437.60;;;2.40;99.90;;;;;;4435482;32;20180;-64
2022/01/06 00:58:08;;;;;;;459.47;438.53;;;2.40;99.90;;;;;;4435382;32;20153;-64
2022/01/06 01:00:39;;;;;;;447.97;426.77;;;2.40;99.90;;;;;;4434990;32;21610;-65
2022/01/06 01:03:10;;;;;;;443.33;423.50;;;2.40;99.90;;;;;;4434935;32;20155;-66
2022/01/06 01:05:39;;;;;;;446.53;426.50;;;2.30;99.90;;;;;;4435033;32;20498;-64
2022/01/06 01:08:06;;;;;;;431.67;411.80;;;2.30;99.90;;;;;;4432560;32;20139;-65
2022/01/06 01:10:47;;;;;;;433.60;414.20;;;2.20;99.90;;;;;;4435731;32;20155;-65
2022/01/06 01:13:18;;;;;;;422.07;403.03;;;2.20;99.90;;;;;;4435166;32;20179;-65
2022/01/06 01:15:50;;;;;;;437.00;416.63;;;2.20;99.90;;;;;;4435566;32;20178;-65
2022/01/06 01:18:18;;;;;;;430.63;410.13;;;2.20;99.90;;;;;;4435035;32;20209;-67
2022/01/06 01:20:48;;;;;;;440.23;420.13;;;2.20;99.90;;;;;;4434606;32;20545;-64
2022/01/06 01:23:15;;;;;;;433.47;413.90;;;2.10;99.90;;;;;;4435084;32;20222;-63
2022/01/06 01:25:44;;;;;;;454.63;433.83;;;2.10;99.90;;;;;;4435089;32;20666;-67
2022/01/06 01:28:12;;;;;;;442.80;422.50;;;2.00;99.90;;;;;;4435326;32;20219;-65
2022/01/06 01:30:52;;;;;;;443.17;423.27;;;2.00;99.90;;;;;;4434301;32;20175;-63
2022/01/06 01:33:18;;;;;;;418.63;400.07;;;2.00;99.90;;;;;;4433983;32;20165;-66
2022/01/06 01:35:45;;;;;;;420.40;401.60;;;2.00;99.90;;;;;;4434227;32;20244;-63
2022/01/06 01:38:12;;;;;;;428.97;410.03;;;1.90;99.90;;;;;;4434648;32;20190;-62
2022/01/06 01:40:39;;;;;;;426.37;407.00;;;2.00;99.90;;;;;;4435474;32;20257;-63
2022/01/06 01:43:11;;;;;;;413.13;395.07;;;1.90;99.90;;;;;;4436243;32;20226;-66
2022/01/06 01:45:45;;;;;;;409.07;390.97;;;1.90;99.90;;;;;;4436712;32;20183;-63
2022/01/06 01:48:23;;;;;;;421.97;403.20;;;1.90;99.90;;;;;;4434628;32;20179;-65
2022/01/06 01:50:50;;;;;;;405.67;386.83;;;1.90;99.90;;;;;;4435218;32;20150;-66
2022/01/06 01:53:16;;;;;;;432.83;412.80;;;2.00;99.90;;;;;;4434325;32;20221;-62
2022/01/06 01:55:43;;;;;;;409.17;390.80;;;2.10;99.90;;;;;;4434273;32;20198;-68
2022/01/06 01:58:13;;;;;;;430.27;410.93;;;2.10;99.90;;;;;;4434503;32;20187;-64
2022/01/06 02:00:43;;;;;;;421.83;402.93;;;2.00;99.90;;;;;;4435842;32;20202;-64
2022/01/06 02:03:12;;;;;;;419.63;400.23;;;2.00;99.90;;;;;;4434239;32;20219;-67
2022/01/06 02:05:38;;;;;;;438.93;418.00;;;1.90;99.90;;;;;;4435219;32;20158;-65
2022/01/06 02:08:06;;;;;;;450.47;429.93;;;2.00;99.90;;;;;;4434148;32;20608;-63
2022/01/06 02:10:37;;;;;;;445.10;424.57;;;2.10;99.90;;;;;;4435810;32;20211;-64
2022/01/06 02:13:07;;;;;;;422.63;403.23;;;2.20;99.90;;;;;;4434035;32;20534;-65
2022/01/06 02:15:35;;;;;;;437.50;417.17;;;2.10;99.90;;;;;;4435823;32;20178;-64
2022/01/06 02:18:11;;;;;;;427.53;408.03;;;2.20;99.90;;;;;;4430286;32;20234;-65
2022/01/06 02:20:44;;;;;;;436.97;416.93;;;2.10;99.90;;;;;;4427226;32;20203;-64
2022/01/06 02:23:13;;;;;;;435.87;416.03;;;2.10;99.90;;;;;;4434370;32;20237;-63
2022/01/06 02:25:50;;;;;;;444.53;423.97;;;2.10;99.90;;;;;;4434896;32;20221;-63
2022/01/06 02:28:26;;;;;;;434.37;414.50;;;2.10;99.90;;;;;;4430087;32;20198;-62
2022/01/06 02:30:55;;;;;;;428.07;408.73;;;2.10;99.90;;;;;;4426388;32;20147;-63
2022/01/06 02:33:25;;;;;;;402.80;384.27;;;2.10;99.90;;;;;;4432911;32;20231;-63
2022/01/06 02:35:54;;;;;;;402.13;383.70;;;2.10;99.90;;;;;;4434895;32;20179;-63
2022/01/06 02:38:25;;;;;;;411.37;392.83;;;2.10;99.90;;;;;;4434363;32;20236;-63
2022/01/06 02:40:52;;;;;;;429.40;410.27;;;2.10;99.90;;;;;;4435991;32;20154;-63
2022/01/06 02:43:24;;;;;;;424.23;404.63;;;2.10;99.90;;;;;;4438325;32;20225;-63
2022/01/06 02:45:52;;;;;;;388.10;371.23;;;2.10;99.90;;;;;;4436152;32;20173;-63
2022/01/06 02:48:19;;;;;;;400.13;382.33;;;2.10;99.90;;;;;;4437018;32;20204;-63
2022/01/06 02:50:50;;;;;;;419.20;400.13;;;2.10;99.90;;;;;;4436564;32;20258;-63
2022/01/06 02:53:20;;;;;;;389.20;371.47;;;2.10;99.90;;;;;;4436372;32;20155;-63
2022/01/06 02:55:50;;;;;;;404.73;387.20;;;2.00;99.90;;;;;;4437334;32;20240;-63
2022/01/06 02:58:18;;;;;;;401.77;384.27;;;1.90;99.90;;;;;;4436469;32;20160;-63
2022/01/06 03:00:46;;;;;;;406.20;388.50;;;1.90;99.90;;;;;;4436936;32;20591;-63
2022/01/06 03:03:13;;;;;;;408.07;390.40;;;1.90;99.90;;;;;;4437639;32;20215;-63
2022/01/06 03:05:42;;;;;;;410.03;391.67;;;1.90;99.90;;;;;;4439135;32;20161;-63
2022/01/06 03:08:11;;;;;;;408.37;390.53;;;1.90;99.90;;;;;;4436512;32;20226;-63
2022/01/06 03:10:43;;;;;;;409.10;390.87;;;1.80;99.90;;;;;;4437042;32;20162;-63
2022/01/06 03:13:11;;;;;;;384.20;367.33;;;1.80;99.90;;;;;;4439963;32;20163;-63
2022/01/06 03:15:38;;;;;;;404.50;386.73;;;1.70;99.90;;;;;;4437229;32;20155;-63
2022/01/06 03:18:07;;;;;;;403.40;385.70;;;1.70;99.90;;;;;;4436746;32;20175;-63
2022/01/06 03:20:34;;;;;;;401.33;384.13;;;1.70;99.90;;;;;;4439103;32;20181;-63
2022/01/06 03:23:01;;;;;;;396.47;379.03;;;1.70;99.90;;;;;;4437155;32;20576;-63
2022/01/06 03:25:28;;;;;;;391.83;374.50;;;1.70;99.90;;;;;;4436650;32;20172;-63
2022/01/06 03:27:56;;;;;;;379.77;362.90;;;1.60;99.90;;;;;;4436627;32;20161;-63
2022/01/06 03:30:24;;;;;;;407.43;389.40;;;1.60;99.90;;;;;;4436031;32;20151;-63
2022/01/06 03:32:51;;;;;;;393.67;376.77;;;1.70;99.90;;;;;;4436301;32;20168;-63
2022/01/06 03:35:21;;;;;;;389.93;373.23;;;1.60;99.90;;;;;;4436725;32;20635;-63
2022/01/06 03:37:48;;;;;;;391.17;374.23;;;1.60;99.90;;;;;;4437071;32;20242;-63
2022/01/06 03:40:15;;;;;;;407.83;389.77;;;1.60;99.90;;;;;;4436623;32;20156;-63
2022/01/06 03:42:42;;;;;;;395.03;377.73;;;1.60;99.90;;;;;;4436719;32;20294;-63
2022/01/06 03:45:15;;;;;;;389.73;372.87;;;1.60;99.90;;;;;;4436749;32;20179;-63
2022/01/06 03:47:44;;;;;;;372.53;356.30;;;1.50;99.90;;;;;;4437383;32;20189;-63
2022/01/06 03:50:16;;;;;;;374.40;358.43;;;1.50;99.90;;;;;;4436050;32;20212;-63
2022/01/06 03:52:43;;;;;;;396.77;379.50;;;1.50;99.90;;;;;;4436970;32;20223;-63
2022/01/06 03:55:12;;;;;;;408.63;390.87;;;1.40;99.90;;;;;;4436167;32;20229;-63
2022/01/06 03:57:41;;;;;;;380.07;363.30;;;1.40;99.90;;;;;;4435296;32;20943;-63
2022/01/06 04:00:18;;;;;;;386.40;369.67;;;1.40;99.90;;;;;;4435921;32;20173;-63
2022/01/06 04:02:46;;;;;;;380.63;364.77;;;1.40;99.90;;;;;;4436381;32;20574;-63
2022/01/06 04:05:14;;;;;;;379.00;362.70;;;1.40;99.90;;;;;;4436408;32;20211;-63
2022/01/06 04:07:42;;;;;;;387.63;370.47;;;1.30;99.90;;;;;;4435796;32;20215;-63
2022/01/06 04:10:11;;;;;;;368.50;352.20;;;1.30;99.90;;;;;;4436982;32;20177;-63
2022/01/06 04:12:38;;;;;;;378.73;362.20;;;1.30;99.90;;;;;;4436277;32;20258;-63
2022/01/06 04:15:13;;;;;;;368.73;352.90;;;1.20;99.90;;;;;;4435210;32;20206;-62
2022/01/06 04:17:40;;;;;;;378.77;362.27;;;1.20;99.90;;;;;;4436144;32;20150;-62
2022/01/06 04:20:07;;;;;;;396.50;378.90;;;1.30;99.90;;;;;;4438117;32;20170;-62
2022/01/06 04:22:34;;;;;;;381.70;364.97;;;1.20;99.90;;;;;;4435989;32;20592;-62
2022/01/06 04:25:01;;;;;;;396.67;379.57;;;1.20;99.90;;;;;;4436155;32;20204;-62
2022/01/06 04:27:28;;;;;;;375.93;359.40;;;1.20;99.90;;;;;;4436092;32;20579;-62
2022/01/06 04:29:55;;;;;;;384.67;368.03;;;1.20;99.90;;;;;;4435819;32;20163;-63
2022/01/06 04:32:23;;;;;;;417.10;398.93;;;1.20;99.90;;;;;;4436179;32;20210;-62
2022/01/06 04:34:50;;;;;;;390.30;373.63;;;1.10;99.90;;;;;;4436097;32;20630;-63
2022/01/06 04:37:18;;;;;;;379.70;362.80;;;1.10;99.90;;;;;;4435197;32;20214;-63
2022/01/06 04:39:45;;;;;;;364.50;349.00;;;1.00;99.90;;;;;;4435425;32;20226;-63
2022/01/06 04:42:14;;;;;;;368.93;352.80;;;1.00;99.90;;;;;;4437188;32;20239;-62
2022/01/06 04:44:41;;;;;;;376.60;360.57;;;1.00;99.90;;;;;;4435922;32;20587;-62
2022/01/06 04:47:08;;;;;;;376.97;360.57;;;1.00;99.90;;;;;;4435401;32;20171;-62
2022/01/06 04:49:36;;;;;;;369.17;353.27;;;1.00;99.90;;;;;;4435327;32;20214;-62
2022/01/06 04:52:07;;;;;;;362.47;346.87;;;1.00;99.90;;;;;;4436062;32;20584;-62
2022/01/06 04:54:34;;;;;;;353.20;337.90;;;1.00;99.90;;;;;;4435372;32;20578;-62
2022/01/06 04:57:05;;;;;;;363.73;348.20;;;0.90;99.90;;;;;;4435126;32;20583;-63
2022/01/06 04:59:32;;;;;;;350.87;335.60;;;0.90;99.90;;;;;;4434604;32;20185;-63
2022/01/06 05:01:59;;;;;;;369.03;353.03;;;0.90;99.90;;;;;;4437033;32;20211;-63
2022/01/06 05:04:28;;;;;;;371.53;355.00;;;0.90;99.90;;;;;;4437914;32;20198;-62
2022/01/06 05:06:59;;;;;;;376.37;360.33;;;0.90;99.90;;;;;;4435475;32;20243;-63
2022/01/06 05:09:30;;;;;;;359.60;343.87;;;0.90;99.90;;;;;;4434947;32;20189;-62
2022/01/06 05:11:57;;;;;;;347.27;332.63;;;0.80;99.90;;;;;;4434149;32;20626;-62
2022/01/06 05:14:26;;;;;;;359.70;344.07;;;0.80;99.90;;;;;;4436648;32;20202;-62
2022/01/06 05:16:59;;;;;;;363.63;348.20;;;0.80;99.90;;;;;;4434914;32;20155;-62
2022/01/06 05:19:28;;;;;;;341.20;326.17;;;0.80;99.90;;;;;;4435034;32;20174;-62
2022/01/06 05:21:59;;;;;;;348.63;333.87;;;0.80;99.90;;;;;;4435130;32;20450;-63
2022/01/06 05:24:30;;;;;;;350.30;335.60;;;0.80;99.90;;;;;;4435252;32;20189;-63
2022/01/06 05:27:00;;;;;;;331.30;317.20;;;0.80;99.90;;;;;;4434444;32;20177;-63
2022/01/06 05:29:28;;;;;;;336.90;322.27;;;0.80;99.90;;;;;;4434880;32;20574;-64
2022/01/06 05:31:55;;;;;;;346.07;331.23;;;0.70;99.90;;;;;;4434245;32;20174;-63
2022/01/06 05:34:22;;;;;;;347.33;332.83;;;0.70;99.90;;;;;;4435274;32;20531;-63
2022/01/06 05:36:49;;;;;;;353.77;338.43;;;0.70;99.90;;;;;;4435501;32;20639;-62
2022/01/06 05:39:16;;;;;;;333.57;319.43;;;0.70;99.90;;;;;;4436120;32;20707;-63
2022/01/06 05:41:45;;;;;;;321.60;307.97;;;0.70;99.90;;;;;;4433621;32;20190;-63
2022/01/06 05:44:11;;;;;;;326.90;312.87;;;0.70;99.90;;;;;;4435666;32;20270;-62
2022/01/06 05:46:38;;;;;;;348.90;332.63;;;0.70;99.90;;;;;;4434524;32;20155;-62
2022/01/06 05:49:06;;;;;;;340.27;326.03;;;0.70;99.90;;;;;;4434734;32;20211;-63
2022/01/06 05:51:32;;;;;;;320.83;307.43;;;0.70;99.90;;;;;;4435476;32;20181;-62
2022/01/06 05:53:59;;;;;;;339.03;324.87;;;0.70;99.90;;;;;;4434337;32;20163;-63
2022/01/06 05:56:27;;;;;;;335.60;321.43;;;0.70;99.90;;;;;;4434497;32;20179;-63
2022/01/06 05:59:02;;;;;;;310.23;297.30;;;0.70;99.90;;;;;;4437081;32;20150;-61
2022/01/06 06:01:29;;;;;;;327.73;313.37;;;0.60;99.90;;;;;;4434212;32;20253;-62
2022/01/06 06:03:56;;;;;;;318.53;305.03;;;0.60;99.90;;;;;;4434184;32;20652;-63
2022/01/06 06:06:22;;;;;;;328.17;313.93;;;0.60;99.90;;;;;;4434262;32;20203;-62
2022/01/06 06:08:53;;;;;;;344.63;330.03;;;0.60;99.90;;;;;;4434717;32;20206;-63
2022/01/06 06:11:23;;;;;;;324.57;310.83;;;0.60;99.90;;;;;;4438434;32;20214;-63
2022/01/06 06:13:51;;;;;;;321.23;307.13;;;0.60;99.90;;;;;;4433437;32;20152;-62
2022/01/06 06:16:19;;;;;;;336.13;322.10;;;0.60;99.90;;;;;;4434260;32;20579;-63
2022/01/06 06:25:32;;;;;;;284.60;272.83;;;0.50;99.90;;;;;;4435465;32;20590;-64
2022/01/06 06:28:01;;;;;;;307.47;294.50;;;0.50;99.90;;;;;;4434551;32;20179;-64
2022/01/06 06:30:28;;;;;;;312.00;298.97;;;0.50;99.90;;;;;;4434018;32;20242;-63
2022/01/06 06:32:57;;;;;;;309.63;296.53;;;0.50;99.90;;;;;;4435346;32;20567;-64
2022/01/06 06:35:24;;;;;;;330.80;316.90;;;0.40;99.90;;;;;;4434775;32;20223;-66
2022/01/06 06:37:51;;;;;;;316.17;303.03;;;0.40;99.90;;;;;;4434904;32;20155;-64
2022/01/06 06:40:19;;;;;;;315.73;302.63;;;0.50;99.90;;;;;;4433967;32;20158;-63
2022/01/06 06:42:48;;;;;;;327.00;312.93;;;0.50;99.90;;;;;;4434251;32;20502;-67
2022/01/06 06:45:19;;;;;;;315.77;302.43;;;0.40;99.90;;;;;;4435349;32;20174;-66
2022/01/06 06:47:46;;;;;;;315.47;301.87;;;0.40;99.90;;;;;;4435975;32;20492;-63
2022/01/06 06:50:16;;;;;;;314.90;301.63;;;0.40;99.90;;;;;;4433676;32;20639;-64
2022/01/06 06:52:43;;;;;;;309.70;296.37;;;0.40;99.90;;;;;;4436176;32;20159;-64
2022/01/06 06:55:15;;;;;;;315.40;302.43;;;0.40;99.90;;;;;;4433879;32;20574;-64
2022/01/06 06:57:43;;;;;;;295.17;282.83;;;0.40;99.90;;;;;;4433347;32;20627;-63
2022/01/06 07:00:14;;;;;;;320.07;306.30;;;0.40;99.90;;;;;;4434158;32;20173;-69
2022/01/06 07:02:44;;;;;;;316.67;303.20;;;0.30;99.90;;;;;;4434586;32;20159;-65
2022/01/06 07:05:12;;;;;;;311.47;298.43;;;0.40;99.90;;;;;;4433976;32;20163;-63
2022/01/06 07:07:43;;;;;;;316.90;303.33;;;0.50;99.90;;;;;;4433277;32;20221;-63
2022/01/06 07:10:14;;;;;;;310.80;297.63;;;0.40;99.90;;;;;;4434980;32;20155;-63
2022/01/06 07:12:48;;;;;;;311.90;298.47;;;0.40;99.90;;;;;;4433539;32;20171;-64
2022/01/06 07:15:17;;;;;;;298.03;285.07;;;0.40;99.90;;;;;;4434887;32;20173;-65
2022/01/06 07:17:47;;;;;;;312.57;299.23;;;0.30;99.90;;;;;;4435177;32;20256;-62
2022/01/06 07:20:16;;;;;;;306.60;293.60;;;0.30;99.90;;;;;;4434000;32;20241;-61
2022/01/06 07:22:49;;;;;;;317.60;303.87;;;0.30;99.90;;;;;;4435168;32;20205;-64
2022/01/06 07:25:24;;;;;;;310.03;296.70;;;0.30;99.90;;;;;;4435768;32;20159;-62
2022/01/06 07:27:56;;;;;;;279.77;267.97;;;0.30;99.90;;;;;;4436102;32;20170;-63
2022/01/06 07:30:23;;;;;;;290.27;277.30;;;0.20;99.90;;;;;;4434698;32;20446;-66
2022/01/06 07:32:53;;;;;;;297.13;284.23;;;0.20;99.90;;;;;;4433726;32;20159;-63
2022/01/06 07:35:24;;;;;;;314.73;300.77;;;0.20;99.90;;;;;;4433895;32;20250;-63
2022/01/06 07:37:52;;;;;;;286.33;273.80;;;0.20;99.90;;;;;;4436053;32;20317;-65
2022/01/06 07:40:20;;;;;;;318.40;304.53;;;0.20;99.90;;;;;;4436894;32;20191;-63
2022/01/06 07:42:48;;;;;;;315.90;302.33;;;0.20;99.90;;;;;;4436579;32;20640;-63
2022/01/06 07:45:15;;;;;;;303.60;290.17;;;0.30;99.90;;;;;;4437199;32;20534;-61
2022/01/06 07:47:55;;;;;;;309.30;295.90;;;0.30;99.90;;;;;;4436912;32;20155;-61
2022/01/06 07:50:27;;;;;;;294.57;282.10;;;0.40;99.90;;;;;;4436310;32;20501;-63
2022/01/06 07:52:56;;;;;;;287.53;275.07;;;0.40;99.90;;;;;;4436698;32;20167;-63
2022/01/06 07:55:23;;;;;;;298.20;285.33;;;0.40;99.90;;;;;;4435744;32;20609;-63
2022/01/06 07:58:00;;;;;;;334.20;319.03;;;0.40;99.90;;;;;;4434952;32;20167;-66
2022/01/06 08:00:28;;;;;;;318.43;304.77;;;0.40;99.90;;;;;;4436505;32;20548;-61
2022/01/06 08:02:56;;;;;;;326.77;312.83;;;0.60;99.90;;;;;;4436337;32;20222;-61
2022/01/06 08:05:26;;;;;;;352.77;337.50;;;0.70;99.90;;;;;;4436074;32;20162;-62
2022/01/06 08:07:55;;;;;;;355.50;340.13;;;0.90;99.90;;;;;;4436610;32;20174;-61
2022/01/06 08:10:22;;;;;;;336.93;322.53;;;1.00;99.90;;;;;;4435620;32;20587;-64
2022/01/06 08:12:49;;;;;;;348.90;334.30;;;1.10;99.90;;;;;;4435736;32;20203;-64
2022/01/06 08:15:17;;;;;;;356.13;341.03;;;1.10;99.90;;;;;;4435736;32;20159;-64
2022/01/06 08:17:44;;;;;;;356.17;340.90;;;1.20;99.90;;;;;;4435353;32;20178;-61
2022/01/06 08:20:14;;;;;;;342.20;327.47;;;1.30;99.90;;;;;;4434204;32;20155;-61
2022/01/06 08:22:41;;;;;;;365.47;349.80;;;1.40;99.90;;;;;;4436501;32;20200;-61
2022/01/06 08:25:11;;;;;;;365.07;349.13;;;1.50;99.90;;;;;;4435170;32;20226;-61
2022/01/06 08:27:40;;;;;;;373.43;357.50;;;1.70;99.90;;;;;;4437875;32;20175;-61
2022/01/06 08:30:12;;;;;;;387.67;370.33;;;1.80;99.90;;;;;;4435274;32;20166;-61
2022/01/06 08:32:39;;;;;;;372.80;356.37;;;1.90;99.90;;;;;;4437630;32;20223;-64
2022/01/06 08:35:10;;;;;;;389.47;372.53;;;1.90;99.90;;;;;;4429684;32;20330;-66
2022/01/06 08:37:40;;;;;;;377.57;360.97;;;1.90;99.90;;;;;;4434339;32;20255;-62
2022/01/06 08:40:10;;;;;;;392.50;375.50;;;2.00;99.90;;;;;;4434298;32;20206;-62
2022/01/06 08:42:37;;;;;;;399.37;381.20;;;2.00;99.90;;;;;;4435528;32;20583;-63
2022/01/06 08:45:05;;;;;;;386.33;369.27;;;2.10;99.90;;;;;;4435077;32;20240;-61
2022/01/06 08:47:32;;;;;;;392.67;375.43;;;2.10;99.90;;;;;;4434374;32;20240;-60
2022/01/06 08:49:59;;;;;;;390.40;373.40;;;2.00;99.90;;;;;;4433898;32;20606;-61
2022/01/06 08:52:26;;;;;;;377.37;360.60;;;1.90;99.90;;;;;;4435748;32;20274;-60
2022/01/06 08:54:56;;;;;;;390.53;373.73;;;1.90;99.90;;;;;;4435269;32;20211;-61
2022/01/06 08:57:25;;;;;;;394.67;377.07;;;1.90;99.90;;;;;;4435831;32;20178;-60
2022/01/06 09:02:38;;;;;;;390.97;373.80;;;2.20;99.90;;;;;;4394308;32;20156;-62
2022/01/06 09:05:10;;;;;;;399.10;381.57;;;2.20;99.90;;;;;;4396807;32;20225;-61
2022/01/06 09:07:40;;;;;;;399.60;382.20;;;2.20;99.90;;;;;;4393938;32;20168;-62
2022/01/06 09:10:10;;;;;;;398.87;380.27;;;2.20;99.90;;;;;;4395919;32;20504;-61
2022/01/06 09:12:43;;;;;;;403.60;384.77;;;2.10;99.90;;;;;;4392824;32;20192;-62
2022/01/06 09:15:11;;;;;;;412.37;393.40;;;2.10;99.90;;;;;;4394196;32;20206;-61
2022/01/06 09:17:40;;;;;;;419.47;400.83;;;2.10;99.90;;;;;;4390309;32;20168;-62
2022/01/06 09:20:08;;;;;;;409.73;391.67;;;2.10;99.90;;;;;;4390058;32;20931;-62
2022/01/06 09:22:37;;;;;;;419.93;401.40;;;2.20;99.90;;;;;;4392337;32;20241;-62
2022/01/06 09:25:14;;;;;;;408.20;388.67;;;2.20;99.90;;;;;;4392854;32;20169;-63
2022/01/06 09:27:43;;;;;;;402.47;384.27;;;2.20;99.90;;;;;;4391438;32;20167;-61
2022/01/06 09:30:13;;;;;;;405.67;388.07;;;2.20;99.90;;;;;;4392215;32;20200;-62
2022/01/06 09:32:40;;;;;;;414.97;396.07;;;2.30;99.90;;;;;;4390308;32;20349;-63
2022/01/06 09:35:13;;;;;;;425.40;405.73;;;2.30;99.90;;;;;;4391992;32;20224;-62
2022/01/06 09:37:40;;;;;;;416.57;397.63;;;2.30;99.90;;;;;;4388735;32;20160;-62
2022/01/06 09:40:11;;;;;;;427.53;407.60;;;2.30;99.90;;;;;;4417462;32;20178;-64
2022/01/06 09:42:44;;;;;;;415.53;396.37;;;2.40;99.90;;;;;;4434987;32;20612;-63
2022/01/06 09:45:17;;;;;;;417.30;397.93;;;2.40;99.90;;;;;;4435196;32;20228;-64
2022/01/06 09:47:48;;;;;;;425.17;406.33;;;2.50;99.90;;;;;;4435652;32;20541;-65
2022/01/06 09:50:15;;;;;;;428.40;408.70;;;2.60;99.90;;;;;;4436365;32;20247;-63
2022/01/06 09:52:42;;;;;;;450.90;430.00;;;2.60;99.90;;;;;;4435105;32;20170;-62
2022/01/06 09:55:10;;;;;;;438.00;418.03;;;2.60;99.90;;;;;;4434612;32;20177;-62
2022/01/06 09:57:37;;;;;;;421.10;401.90;;;2.70;99.90;;;;;;4433356;32;20168;-62
2022/01/06 10:00:07;;;;;;;432.73;413.57;;;2.80;99.90;;;;;;4435649;32;20494;-62
2022/01/06 10:02:37;;;;;;;429.17;409.10;;;2.80;99.90;;;;;;4435960;32;20575;-62
2022/01/06 10:05:08;;;;;;;423.83;405.07;;;2.80;99.90;;;;;;4434477;32;20160;-64
2022/01/06 10:07:38;;;;;;;430.90;410.93;;;2.90;99.90;;;;;;4434126;32;20561;-63
2022/01/06 10:10:07;;;;;;;443.97;423.63;;;2.90;99.90;;;;;;4437693;32;20267;-62
2022/01/06 10:12:39;;;;;;;458.90;437.63;;;3.00;99.90;;;;;;4433172;32;20210;-61
2022/01/06 10:15:17;;;;;;;440.30;419.77;;;3.10;99.90;;;;;;4436443;32;20224;-63
2022/01/06 10:17:46;;;;;;;454.97;433.53;;;3.10;99.90;;;;;;4435716;32;20623;-61
2022/01/06 10:20:15;;;;;;;441.37;420.87;;;3.20;99.90;;;;;;4433749;32;20538;-62
2022/01/06 10:22:47;;;;;;;434.67;414.43;;;3.20;99.90;;;;;;4434229;32;20500;-63
2022/01/06 10:25:18;;;;;;;444.33;423.93;;;3.30;99.90;;;;;;4438453;32;20208;-62
2022/01/06 10:27:46;;;;;;;440.30;419.80;;;3.30;99.90;;;;;;4435315;32;20179;-62
2022/01/06 10:30:14;;;;;;;441.70;421.20;;;3.40;99.90;;;;;;4435019;32;20217;-62
2022/01/06 10:32:42;;;;;;;468.80;446.37;;;3.40;99.90;;;;;;4438625;32;20554;-61
2022/01/06 10:35:12;;;;;;;461.17;439.77;;;3.50;99.90;;;;;;4438937;32;20182;-61
2022/01/06 10:37:48;;;;;;;451.00;429.23;;;3.50;99.90;;;;;;4434625;32;20206;-63
2022/01/06 10:40:25;;;;;;;458.00;436.80;;;3.60;99.90;;;;;;4435217;32;20587;-63
2022/01/06 10:42:55;;;;;;;458.07;436.60;;;3.70;99.90;;;;;;4435459;32;20221;-66
2022/01/06 10:45:25;;;;;;;444.00;423.73;;;3.70;99.90;;;;;;4435492;32;20175;-63
2022/01/06 10:47:57;;;;;;;457.20;436.20;;;3.70;99.90;;;;;;4440767;32;20186;-60
2022/01/06 10:50:27;;;;;;;461.40;439.47;;;3.70;99.90;;;;;;4433772;32;20154;-65
2022/01/06 10:52:56;;;;;;;461.27;439.23;;;3.80;99.90;;;;;;4437756;32;20516;-61
2022/01/06 10:55:27;;;;;;;460.10;437.87;;;3.90;99.90;;;;;;4434675;32;20593;-61
2022/01/06 10:58:02;;;;;;;457.33;435.70;;;3.90;99.90;;;;;;4434482;32;20167;-61
2022/01/06 11:00:32;;;;;;;441.93;421.00;;;4.00;99.90;;;;;;4435491;32;20157;-63
2022/01/06 11:03:19;;;;;;;462.80;439.57;;;4.00;99.90;;;;;;4434058;32;20178;-63
2022/01/06 11:05:51;;;;;;;476.40;453.63;;;4.10;99.90;;;;;;4434688;32;20156;-62
2022/01/06 11:08:25;;;;;;;479.67;456.80;;;4.30;99.90;;;;;;4437221;32;20189;-63
2022/01/06 11:11:14;;;;;;;469.70;446.77;;;4.30;99.90;;;;;;4437275;32;20552;-62
2022/01/06 11:13:44;;;;;;;430.00;409.97;;;4.30;99.90;;;;;;4438129;32;20270;-64
2022/01/06 11:16:13;;;;;;;466.50;444.87;;;4.50;99.90;;;;;;4437143;32;20198;-65
2022/01/06 11:18:42;;;;;;;478.47;455.90;;;4.60;99.90;;;;;;4437924;32;20215;-59
2022/01/06 11:21:13;;;;;;;454.97;433.67;;;4.80;99.90;;;;;;4437521;32;20159;-60
2022/01/06 11:23:41;;;;;;;455.37;433.70;;;4.90;99.90;;;;;;4437113;32;20151;-63
2022/01/06 11:26:12;;;;;;;466.50;444.73;;;5.10;99.90;;;;;;4437704;32;20182;-63
2022/01/06 11:28:40;;;;;;;448.90;427.53;;;5.30;99.90;;;;;;4439874;32;20189;-62
2022/01/06 11:31:16;;;;;;;450.53;429.20;;;5.60;99.90;;;;;;4440639;32;20234;-63
2022/01/06 11:33:44;;;;;;;425.73;406.57;;;5.80;99.90;;;;;;4437880;32;20177;-59
2022/01/06 11:36:24;;;;;;;432.40;411.97;;;6.00;99.90;;;;;;4437343;32;20234;-61
2022/01/06 11:38:53;;;;;;;407.17;389.10;;;5.80;99.90;;;;;;4437315;32;20194;-63
2022/01/06 11:41:20;;;;;;;381.40;364.17;;;5.70;99.90;;;;;;4436680;32;20170;-62
2022/01/06 11:43:49;;;;;;;408.50;389.83;;;5.60;99.90;;;;;;4437372;32;20545;-62
2022/01/06 11:46:16;;;;;;;386.60;369.93;;;5.50;99.90;;;;;;4435909;32;20175;-63
2022/01/06 11:48:47;;;;;;;422.57;403.20;;;5.40;99.90;;;;;;4434157;32;20241;-62
2022/01/06 11:51:27;;;;;;;399.20;381.20;;;5.50;99.90;;;;;;4433058;32;20186;-64
2022/01/06 11:53:57;;;;;;;415.37;396.63;;;5.40;99.90;;;;;;4436254;32;20267;-66
2022/01/06 11:56:25;;;;;;;434.07;414.43;;;5.60;99.90;;;;;;4435271;32;20155;-64
2022/01/06 11:59:01;;;;;;;455.60;434.43;;;6.00;99.90;;;;;;4439294;32;20576;-61
2022/01/06 12:01:28;;;;;;;408.43;389.77;;;6.20;99.90;;;;;;4435452;32;20209;-61
2022/01/06 12:03:56;;;;;;;451.73;431.77;;;6.40;99.90;;;;;;4436199;32;20265;-64
2022/01/06 12:06:27;;;;;;;425.87;406.50;;;6.50;99.90;;;;;;4436057;32;20211;-65
2022/01/06 12:08:54;;;;;;;403.20;385.50;;;6.50;99.90;;;;;;4437249;32;20154;-63
2022/01/06 12:11:23;;;;;;;423.97;404.70;;;6.40;99.90;;;;;;4436506;32;20609;-62
2022/01/06 12:13:54;;;;;;;425.67;405.70;;;6.40;99.90;;;;;;4438733;32;20246;-61
2022/01/06 12:16:26;;;;;;;402.10;382.77;;;6.60;99.90;;;;;;4436273;32;20158;-62
2022/01/06 12:18:55;;;;;;;419.63;400.83;;;6.80;99.90;;;;;;4440361;32;20166;-62
2022/01/06 12:21:22;;;;;;;393.87;376.30;;;7.00;99.90;;;;;;4436155;32;20194;-64
2022/01/06 12:24:01;;;;;;;388.43;371.10;;;6.70;99.90;;;;;;4437375;32;20238;-65
2022/01/06 12:26:28;;;;;;;377.63;361.17;;;6.70;99.90;;;;;;4440465;32;20143;-63
2022/01/06 12:28:57;;;;;;;402.20;384.57;;;6.60;99.90;;;;;;4438475;32;20546;-64
2022/01/06 12:31:29;;;;;;;373.73;357.33;;;6.70;99.90;;;;;;4438857;32;20158;-62
2022/01/06 12:34:02;;;;;;;390.30;373.10;;;6.80;99.90;;;;;;4446710;32;20179;-62
2022/01/06 12:36:31;;;;;;;390.80;373.57;;;6.90;99.90;;;;;;4441071;32;20155;-62
2022/01/06 12:39:09;;;;;;;416.27;397.60;;;7.00;99.90;;;;;;4435490;32;20182;-62
2022/01/06 12:41:36;;;;;;;407.10;388.80;;;7.00;99.90;;;;;;4436035;32;20639;-67